Time;durP1;ratioP1;P1;durP2;ratioP2;P2;SDS_P1;SDS_P2;PMS_P1;PMS_P2;Temp;Humidity;BMP_temperature;BMP_pressure;BME280_temperature;BME280_humidity;BME280_pressure;Samples;Min_cycle;Max_cycle;Signal;HPM_P1;HPM_P2
2021/01/18 00:00:44;;;;;;;;;;;3.30;99.90;;;;;;5137737;27;19919;-87
2021/01/18 00:03:15;;;;;;;;;;;3.20;99.90;;;;;;5138235;27;19914;-87
2021/01/18 00:05:46;;;;;;;;;;;3.20;99.90;;;;;;5151780;27;19957;-87
2021/01/18 00:08:14;;;;;;;;;;;3.10;99.90;;;;;;5138287;27;20266;-87
2021/01/18 00:10:43;;;;;;;;;;;3.10;99.90;;;;;;5132917;27;19907;-88
2021/01/18 00:13:08;;;;;;;;;;;3.10;99.90;;;;;;5137435;27;19908;-88
2021/01/18 00:15:42;;;;;;;;;;;3.10;99.90;;;;;;5138115;27;19907;-88
2021/01/18 00:18:11;;;;;;;;;;;3.20;99.90;;;;;;5137984;27;20363;-88
2021/01/18 00:20:43;;;;;;;;;;;3.30;99.90;;;;;;5121140;27;19919;-88
2021/01/18 00:23:08;;;;;;;;;;;3.30;99.90;;;;;;5130751;27;19925;-88
2021/01/18 00:25:34;;;;;;;;;;;3.30;99.90;;;;;;5137792;27;19968;-85
2021/01/18 00:28:11;;;;;;;;;;;3.30;99.90;;;;;;5137920;27;19930;-86
2021/01/18 00:30:40;;;;;;;;;;;3.20;99.90;;;;;;5132778;27;19998;-87
2021/01/18 00:33:13;;;;;;;;;;;3.20;99.90;;;;;;5131452;27;19911;-87
2021/01/18 00:35:41;;;;;;;;;;;3.10;99.90;;;;;;5137371;27;20323;-87
2021/01/18 00:38:13;;;;;;;;;;;3.10;99.90;;;;;;5137763;27;20410;-87
2021/01/18 00:41:00;;;;;;;;;;;3.00;99.90;;;;;;5132354;27;19976;-87
2021/01/18 00:43:32;;;;;;;;;;;3.00;99.90;;;;;;5156165;27;19907;-87
2021/01/18 00:46:04;;;;;;;;;;;2.90;99.90;;;;;;5157537;27;19917;-86
2021/01/18 00:48:33;;;;;;;;;;;3.00;99.90;;;;;;5141826;27;19923;-86
2021/01/18 00:51:00;;;;;;;;;;;3.10;99.90;;;;;;5142383;27;19960;-87
2021/01/18 00:53:33;;;;;;;;;;;3.20;99.90;;;;;;5156748;27;19915;-88
2021/01/18 00:55:59;;;;;;;;;;;3.20;99.90;;;;;;5132560;27;19908;-88
2021/01/18 00:58:30;;;;;;;;;;;3.30;99.90;;;;;;5138160;27;19907;-87
2021/01/18 01:01:02;;;;;;;;;;;3.30;99.90;;;;;;5150551;27;19918;-87
2021/01/18 01:03:35;;;;;;;;;;;3.30;99.90;;;;;;5138161;27;19911;-87
2021/01/18 01:06:00;;;;;;;;;;;3.30;99.90;;;;;;5136064;27;19911;-87
2021/01/18 01:08:29;;;;;;;;;;;3.30;99.90;;;;;;5139462;27;20387;-88
2021/01/18 01:10:57;;;;;;;;;;;3.40;99.90;;;;;;5055855;28;19909;-87
2021/01/18 01:13:26;;;;;;;;;;;3.40;99.90;;;;;;5055929;28;19924;-88
2021/01/18 01:15:54;;;;;;;;;;;3.40;99.90;;;;;;5055960;28;19909;-89
2021/01/18 01:18:20;;;;;;;;;;;3.40;99.90;;;;;;4993155;28;19932;-88
2021/01/18 01:20:48;;;;;;;;;;;3.40;99.90;;;;;;4979149;28;20387;-88
2021/01/18 01:23:19;;;;;;;;;;;3.40;99.90;;;;;;4979541;28;19917;-88
2021/01/18 01:25:44;;;;;;;;;;;3.40;99.90;;;;;;4979604;28;20419;-87
2021/01/18 01:28:13;;;;;;;;;;;3.30;99.90;;;;;;4980072;28;19953;-88
2021/01/18 01:30:38;;;;;;;;;;;3.20;99.90;;;;;;4977171;28;19910;-87
2021/01/18 01:33:09;;;;;;;;;;;3.10;99.90;;;;;;4979845;28;19921;-87
2021/01/18 01:35:35;;;;;;;;;;;3.10;99.90;;;;;;4979819;28;20009;-87
2021/01/18 01:38:08;;;;;;;;;;;3.00;99.90;;;;;;4979860;28;20012;-88
2021/01/18 01:40:37;;;;;;;;;;;2.90;99.90;;;;;;4976668;28;19914;-88
2021/01/18 01:43:07;;;;;;;;;;;2.90;99.90;;;;;;5054135;28;19908;-87
2021/01/18 01:45:34;;;;;;;;;;;2.90;99.90;;;;;;5055705;28;19916;-88
2021/01/18 01:48:00;;;;;;;;;;;2.90;99.90;;;;;;5012456;28;20001;-88
2021/01/18 01:50:29;;;;;;;;;;;3.00;99.90;;;;;;5035108;28;19909;-88
2021/01/18 01:52:55;;;;;;;;;;;3.00;99.90;;;;;;5019100;28;19920;-89
2021/01/18 01:55:26;;;;;;;;;;;3.00;99.90;;;;;;5019213;28;19909;-88
2021/01/18 01:58:01;;;;;;;;;;;2.90;99.90;;;;;;5035634;28;19909;-87
2021/01/18 02:00:39;;;;;;;;;;;2.90;99.90;;;;;;5035611;28;19917;-88
2021/01/18 02:03:08;;;;;;;;;;;2.80;99.90;;;;;;5019120;28;19909;-88
2021/01/18 02:05:37;;;;;;;;;;;2.70;99.90;;;;;;5018270;28;19956;-88
2021/01/18 02:08:09;;;;;;;;;;;2.70;99.90;;;;;;5035618;28;19916;-87
2021/01/18 02:10:38;;;;;;;;;;;2.60;99.90;;;;;;5035311;28;19948;-88
2021/01/18 02:13:22;;;;;;;;;;;2.50;99.90;;;;;;5035021;28;19909;-88
2021/01/18 02:15:50;;;;;;;;;;;2.50;99.90;;;;;;5035323;28;20350;-87
2021/01/18 02:18:28;;;;;;;;;;;2.50;99.90;;;;;;5034911;28;20314;-88
2021/01/18 02:21:03;;;;;;;;;;;2.40;99.90;;;;;;5035524;28;19917;-87
2021/01/18 02:23:44;;;;;;;;;;;2.40;99.90;;;;;;5035501;28;19909;-88
2021/01/18 02:26:33;;;;;;;;;;;2.40;99.90;;;;;;5104418;27;19943;-88
2021/01/18 02:29:17;;;;;;;;;;;2.50;99.90;;;;;;5082045;27;19911;-89
2021/01/18 02:31:54;;;;;;;;;;;2.50;99.90;;;;;;5120481;27;19950;-88
2021/01/18 02:34:39;;;;;;;;;;;2.50;99.90;;;;;;5119315;27;19950;-87
2021/01/18 02:37:23;;;;;;;;;;;2.50;99.90;;;;;;5119664;27;20020;-88
2021/01/18 02:39:52;;;;;;;;;;;2.50;99.90;;;;;;5119665;27;20013;-86
2021/01/18 02:42:30;;;;;;;;;;;2.40;99.90;;;;;;5054191;28;20059;-88
2021/01/18 02:44:57;;;;;;;;;;;2.40;99.90;;;;;;5039947;28;20278;-88
2021/01/18 02:47:23;;;;;;;;;;;2.40;99.90;;;;;;5037314;28;19916;-87
2021/01/18 02:49:54;;;;;;;;;;;2.40;99.90;;;;;;5091693;28;19908;-87
2021/01/18 02:52:25;;;;;;;;;;;2.40;99.90;;;;;;5088885;28;19951;-88
2021/01/18 02:54:51;;;;;;;;;;;2.40;99.90;;;;;;5072592;28;19913;-87
2021/01/18 02:57:17;;;;;;;;;;;2.40;99.90;;;;;;5056067;28;19908;-88
2021/01/18 02:59:48;;;;;;;;;;;2.40;99.90;;;;;;5057960;28;20274;-89
2021/01/18 03:02:31;;;;;;;;;;;2.40;99.90;;;;;;5091350;28;19916;-88
2021/01/18 03:05:02;;;;;;;;;;;2.40;99.90;;;;;;5057457;28;19915;-88
2021/01/18 03:07:46;;;;;;;;;;;2.40;99.90;;;;;;5091018;28;20265;-88
2021/01/18 03:10:21;;;;;;;;;;;2.40;99.90;;;;;;5090565;28;19910;-88
2021/01/18 03:13:04;;;;;;;;;;;2.30;99.90;;;;;;5103765;27;19908;-87
2021/01/18 03:15:33;;;;;;;;;;;2.30;99.90;;;;;;5133013;27;19908;-88
2021/01/18 03:18:09;;;;;;;;;;;2.20;99.90;;;;;;5119306;27;20298;-88
2021/01/18 03:20:38;;;;;;;;;;;2.20;99.90;;;;;;5118674;27;19915;-88
2021/01/18 03:23:13;;;;;;;;;;;2.20;99.90;;;;;;5119355;27;19907;-88
2021/01/18 03:25:51;;;;;;;;;;;2.20;99.90;;;;;;5118571;27;19915;-88
2021/01/18 03:28:19;;;;;;;;;;;2.20;99.90;;;;;;5116695;27;20011;-88
2021/01/18 03:30:45;;;;;;;;;;;2.20;99.90;;;;;;5118174;27;19950;-88
2021/01/18 03:33:14;;;;;;;;;;;2.20;99.90;;;;;;5132424;27;19914;-88
2021/01/18 03:35:47;;;;;;;;;;;2.20;99.90;;;;;;5121915;27;19909;-88
2021/01/18 03:38:16;;;;;;;;;;;2.20;99.90;;;;;;5121711;27;20005;-88
2021/01/18 03:40:46;;;;;;;;;;;2.20;99.90;;;;;;5120855;27;20288;-88
2021/01/18 03:43:18;;;;;;;;;;;2.20;99.90;;;;;;5119311;27;19907;-88
2021/01/18 03:45:46;;;;;;;;;;;2.20;99.90;;;;;;5117939;27;19907;-88
2021/01/18 03:48:18;;;;;;;;;;;2.20;99.90;;;;;;5144076;27;19923;-89
2021/01/18 03:51:00;;;;;;;;;;;2.20;99.90;;;;;;5154240;27;19907;-88
2021/01/18 03:53:26;;;;;;;;;;;2.20;99.90;;;;;;5132383;27;19913;-87
2021/01/18 03:55:54;;;;;;;;;;;2.20;99.90;;;;;;5132490;27;19907;-88
2021/01/18 03:58:24;;;;;;;;;;;2.20;99.90;;;;;;5157191;27;19907;-88
2021/01/18 04:00:55;;;;;;;;;;;2.20;99.90;;;;;;5139698;27;19915;-87
2021/01/18 04:03:27;;;;;;;;;;;2.20;99.90;;;;;;5142783;27;19942;-87
2021/01/18 04:05:54;;;;;;;;;;;2.20;99.90;;;;;;5158947;27;19907;-88
2021/01/18 04:08:22;;;;;;;;;;;2.20;99.90;;;;;;5130845;27;19914;-87
2021/01/18 04:10:52;;;;;;;;;;;2.20;99.90;;;;;;5133339;27;19911;-87
2021/01/18 04:13:20;;;;;;;;;;;2.20;99.90;;;;;;5134793;27;19911;-88
2021/01/18 04:15:52;;;;;;;;;;;2.20;99.90;;;;;;5151519;27;19929;-87
2021/01/18 04:18:18;;;;;;;;;;;2.20;99.90;;;;;;5135271;27;19911;-88
2021/01/18 04:20:46;;;;;;;;;;;2.20;99.90;;;;;;5132339;27;19919;-87
2021/01/18 04:23:13;;;;;;;;;;;2.30;99.90;;;;;;5132732;27;19940;-87
2021/01/18 04:25:38;;;;;;;;;;;2.20;99.90;;;;;;5152521;27;19911;-88
2021/01/18 04:28:05;;;;;;;;;;;2.20;99.90;;;;;;5157346;27;19929;-87
2021/01/18 04:30:34;;;;;;;;;;;2.20;99.90;;;;;;5139000;27;20266;-87
2021/01/18 04:33:03;;;;;;;;;;;2.30;99.90;;;;;;5138440;27;19915;-88
2021/01/18 04:35:29;;;;;;;;;;;2.20;99.90;;;;;;5135466;27;19912;-87
2021/01/18 04:37:58;;;;;;;;;;;2.20;99.90;;;;;;5132297;27;19907;-86
2021/01/18 04:40:25;;;;;;;;;;;2.30;99.90;;;;;;5138792;27;20390;-86
2021/01/18 04:42:50;;;;;;;;;;;2.30;99.90;;;;;;5141941;27;19907;-89
2021/01/18 04:45:17;;;;;;;;;;;2.30;99.90;;;;;;5145750;27;19914;-88
2021/01/18 04:47:49;;;;;;;;;;;2.30;99.90;;;;;;5145520;27;19919;-87
2021/01/18 04:50:20;;;;;;;;;;;2.30;99.90;;;;;;5140952;27;19911;-88
2021/01/18 04:52:53;;;;;;;;;;;2.30;99.90;;;;;;5145389;27;20386;-88
2021/01/18 04:55:32;;;;;;;;;;;2.30;99.90;;;;;;5163587;27;20275;-88
2021/01/18 04:58:17;;;;;;;;;;;2.30;99.90;;;;;;5145128;27;19919;-88
2021/01/18 05:00:45;;;;;;;;;;;2.30;99.90;;;;;;5163425;27;20375;-88
2021/01/18 05:03:14;;;;;;;;;;;2.30;99.90;;;;;;5163397;27;20395;-88
2021/01/18 05:05:49;;;;;;;;;;;2.40;99.90;;;;;;5144838;27;19951;-89
2021/01/18 05:08:20;;;;;;;;;;;2.40;99.90;;;;;;5145063;27;19907;-88
2021/01/18 05:10:49;;;;;;;;;;;2.40;99.90;;;;;;5145463;27;20274;-89
2021/01/18 05:13:23;;;;;;;;;;;2.40;99.90;;;;;;5144811;27;19915;-88
2021/01/18 05:15:55;;;;;;;;;;;2.40;99.90;;;;;;5163552;27;19914;-88
2021/01/18 05:18:31;;;;;;;;;;;2.50;99.90;;;;;;5162995;27;19907;-88
2021/01/18 05:20:58;;;;;;;;;;;2.50;99.90;;;;;;5163643;27;19921;-88
2021/01/18 05:23:28;;;;;;;;;;;2.60;99.90;;;;;;5042437;28;20317;-89
2021/01/18 05:26:12;;;;;;;;;;;2.50;99.90;;;;;;5037258;28;19908;-88
2021/01/18 05:28:45;;;;;;;;;;;2.60;99.90;;;;;;5043225;28;19909;-88
2021/01/18 05:31:32;;;;;;;;;;;2.60;99.90;;;;;;5038405;28;19913;-89
2021/01/18 05:34:07;;;;;;;;;;;2.70;99.90;;;;;;5042507;28;20013;-88
2021/01/18 05:36:42;;;;;;;;;;;2.70;99.90;;;;;;5042039;28;20011;-88
2021/01/18 05:39:18;;;;;;;;;;;2.80;99.90;;;;;;5038113;28;19919;-88
2021/01/18 05:41:50;;;;;;;;;;;2.90;99.90;;;;;;5059009;28;19921;-87
2021/01/18 05:44:16;;;;;;;;;;;2.90;99.90;;;;;;5042011;28;19913;-88
2021/01/18 05:46:42;;;;;;;;;;;2.90;99.90;;;;;;5039102;28;19913;-89
2021/01/18 05:49:12;;;;;;;;;;;3.00;99.90;;;;;;5056018;28;19940;-89
2021/01/18 05:51:44;;;;;;;;;;;3.00;99.90;;;;;;5059233;28;19913;-87
2021/01/18 05:54:12;;;;;;;;;;;3.10;99.90;;;;;;5082809;27;19907;-88
2021/01/18 05:56:51;;;;;;;;;;;3.10;99.90;;;;;;5138409;27;19919;-87
2021/01/18 05:59:21;;;;;;;;;;;3.10;99.90;;;;;;5141221;27;19911;-88
2021/01/18 06:01:55;;;;;;;;;;;3.20;99.90;;;;;;5155946;27;19915;-88
2021/01/18 06:04:24;;;;;;;;;;;3.20;99.90;;;;;;5140523;27;19961;-87
2021/01/18 06:07:01;;;;;;;;;;;3.20;99.90;;;;;;5158939;27;20006;-87
2021/01/18 06:09:55;;;;;;;;;;;3.20;99.90;;;;;;5137063;27;19907;-88
2021/01/18 06:12:27;;;;;;;;;;;3.20;99.90;;;;;;5140381;27;19907;-87
2021/01/18 06:15:12;;;;;;;;;;;3.20;99.90;;;;;;5140756;27;19959;-87
2021/01/18 06:17:38;;;;;;;;;;;3.20;99.90;;;;;;5152751;27;20177;-88
2021/01/18 06:20:06;;;;;;;;;;;3.20;99.90;;;;;;5124212;27;19961;-87
2021/01/18 06:22:42;;;;;;;;;;;3.20;99.90;;;;;;5114974;27;19914;-87
2021/01/18 06:25:17;;;;;;;;;;;3.20;99.90;;;;;;5116634;27;19998;-88
2021/01/18 06:28:00;;;;;;;;;;;3.20;99.90;;;;;;5116137;27;19914;-87
2021/01/18 06:30:30;;;;;;;;;;;3.20;99.90;;;;;;5135470;27;19912;-89
2021/01/18 06:33:12;;;;;;;;;;;3.20;99.90;;;;;;5118078;27;20353;-88
2021/01/18 06:35:43;;;;;;;;;;;3.20;99.90;;;;;;5117686;27;19934;-89
2021/01/18 06:38:13;;;;;;;;;;;3.20;99.90;;;;;;5114027;27;19930;-89
2021/01/18 06:40:39;;;;;;;;;;;3.20;99.90;;;;;;5150584;27;19926;-89
2021/01/18 06:43:11;;;;;;;;;;;3.20;99.90;;;;;;5157958;27;20355;-88
2021/01/18 06:45:43;;;;;;;;;;;3.20;99.90;;;;;;5160059;27;19906;-89
2021/01/18 06:48:12;;;;;;;;;;;3.20;99.90;;;;;;5176269;27;19923;-89
2021/01/18 06:50:43;;;;;;;;;;;3.20;99.90;;;;;;5174872;27;19914;-88
2021/01/18 06:53:23;;;;;;;;;;;3.20;99.90;;;;;;5159948;27;19907;-87
2021/01/18 06:56:09;;;;;;;;;;;3.20;99.90;;;;;;5179062;27;19994;-88
2021/01/18 06:58:57;;;;;;;;;;;3.20;99.90;;;;;;5108008;27;20010;-88
2021/01/18 07:01:38;;;;;;;;;;;3.30;99.90;;;;;;5057417;28;19956;-88
2021/01/18 07:04:34;;;;;;;;;;;3.20;99.90;;;;;;5178690;27;19907;-90
2021/01/18 07:07:03;;;;;;;;;;;3.20;99.90;;;;;;5158890;27;19907;-90
2021/01/18 07:09:32;;;;;;;;;;;3.20;99.90;;;;;;5178706;27;19968;-90
2021/01/18 07:12:06;;;;;;;;;;;3.20;99.90;;;;;;5155264;27;19911;-89
2021/01/18 07:14:44;;;;;;;;;;;3.10;99.90;;;;;;5160337;27;20271;-89
2021/01/18 07:17:14;;;;;;;;;;;3.10;99.90;;;;;;5157156;27;19914;-89
2021/01/18 07:19:51;;;;;;;;;;;3.10;99.90;;;;;;5146931;27;19914;-88
2021/01/18 07:22:17;;;;;;;;;;;3.10;99.90;;;;;;5120712;27;20336;-88
2021/01/18 07:24:47;;;;;;;;;;;3.10;99.90;;;;;;5152640;27;19914;-87
2021/01/18 07:27:24;;;;;;;;;;;3.20;99.90;;;;;;5118447;27;20351;-87
2021/01/18 07:30:05;;;;;;;;;;;3.20;99.90;;;;;;5118195;27;19919;-87
2021/01/18 07:32:34;;;;;;;;;;;3.20;99.90;;;;;;5135670;27;20336;-87
2021/01/18 07:35:09;;;;;;;;;;;3.20;99.90;;;;;;5141430;27;19907;-88
2021/01/18 07:37:57;;;;;;;;;;;3.30;99.90;;;;;;5119938;27;19911;-89
2021/01/18 07:40:28;;;;;;;;;;;3.30;99.90;;;;;;5135718;27;19956;-90
2021/01/18 07:42:56;;;;;;;;;;;3.30;99.90;;;;;;5114895;27;19908;-90
2021/01/18 07:45:32;;;;;;;;;;;3.30;99.90;;;;;;5114028;27;19907;-90
2021/01/18 07:48:01;;;;;;;;;;;3.30;99.90;;;;;;5118001;27;19923;-89
2021/01/18 07:50:39;;;;;;;;;;;3.40;99.90;;;;;;5118569;27;20321;-89
2021/01/18 07:53:09;;;;;;;;;;;3.40;99.90;;;;;;5118655;27;19907;-89
2021/01/18 07:55:56;;;;;;;;;;;3.40;99.90;;;;;;5115646;27;19933;-90
2021/01/18 07:58:22;;;;;;;;;;;3.50;99.90;;;;;;5118674;27;19907;-90
2021/01/18 08:00:54;;;;;;;;;;;3.50;99.90;;;;;;5115346;27;19915;-88
2021/01/18 08:03:21;;;;;;;;;;;3.60;99.90;;;;;;5113852;27;19927;-88
2021/01/18 08:05:53;;;;;;;;;;;3.60;99.90;;;;;;5118055;27;19998;-88
2021/01/18 08:08:31;;;;;;;;;;;3.60;99.90;;;;;;5117518;27;19914;-88
2021/01/18 08:11:06;;;;;;;;;;;3.60;99.90;;;;;;5114645;27;20452;-88
2021/01/18 08:13:48;;;;;;;;;;;3.60;99.90;;;;;;5117932;27;19908;-88
2021/01/18 08:16:23;;;;;;;;;;;3.60;99.90;;;;;;5117726;27;20375;-88
2021/01/18 08:19:14;;;;;;;;;;;3.70;99.90;;;;;;5135404;27;19916;-88
2021/01/18 08:21:43;;;;;;;;;;;3.70;99.90;;;;;;5106944;27;20446;-88
2021/01/18 08:24:27;;;;;;;;;;;3.70;99.90;;;;;;5116928;27;19976;-87
2021/01/18 08:26:58;;;;;;;;;;;3.70;99.90;;;;;;5118133;27;19915;-91
2021/01/18 08:29:52;;;;;;;;;;;3.70;99.90;;;;;;5118137;27;19907;-88
2021/01/18 08:32:30;;;;;;;;;;;3.80;99.90;;;;;;5113505;27;19919;-89
2021/01/18 08:35:04;;;;;;;;;;;3.80;99.90;;;;;;5113412;28;20418;-88
2021/01/18 08:37:40;;;;;;;;;;;3.80;99.90;;;;;;5114043;28;19995;-88
2021/01/18 08:40:27;;;;;;;;;;;3.80;99.90;;;;;;5097078;28;19919;-89
2021/01/18 08:43:09;;;;;;;;;;;3.80;99.90;;;;;;5099199;28;19919;-89
2021/01/18 08:45:49;;;;;;;;;;;3.90;99.90;;;;;;5096312;28;19914;-89
2021/01/18 08:48:45;;;;;;;;;;;3.90;99.90;;;;;;5097994;28;19927;-88
2021/01/18 08:51:16;;;;;;;;;;;3.90;99.90;;;;;;5111482;28;20346;-88
2021/01/18 08:53:59;;;;;;;;;;;4.00;99.90;;;;;;5111607;28;19911;-89
2021/01/18 08:56:41;;;;;;;;;;;4.00;99.90;;;;;;5096573;28;19908;-89
2021/01/18 08:59:19;;;;;;;;;;;4.00;99.90;;;;;;5094340;28;20416;-89
2021/01/18 09:02:09;;;;;;;;;;;4.00;99.90;;;;;;5092222;28;19920;-89
2021/01/18 09:04:38;;;;;;;;;;;4.00;99.90;;;;;;5095749;28;19999;-88
2021/01/18 09:07:09;;;;;;;;;;;4.10;99.90;;;;;;5106859;28;19915;-89
2021/01/18 09:09:51;;;;;;;;;;;4.10;99.90;;;;;;5110599;28;19907;-88
2021/01/18 09:12:24;;;;;;;;;;;4.10;99.90;;;;;;5110667;28;19985;-87
2021/01/18 09:15:08;;;;;;;;;;;4.20;99.90;;;;;;5043076;28;19917;-86
2021/01/18 09:17:37;;;;;;;;;;;4.30;99.90;;;;;;5049027;28;19962;-88
2021/01/18 09:20:19;;;;;;;;;;;4.30;99.90;;;;;;5057737;28;19995;-88
2021/01/18 09:22:56;;;;;;;;;;;4.30;99.90;;;;;;5054995;28;20409;-88
2021/01/18 09:25:26;;;;;;;;;;;4.40;99.90;;;;;;5046174;28;19912;-88
2021/01/18 09:28:06;;;;;;;;;;;4.40;99.90;;;;;;5054223;28;19990;-88
2021/01/18 09:30:35;;;;;;;;;;;4.40;99.90;;;;;;5053020;28;19908;-88
2021/01/18 09:33:07;;;;;;;;;;;4.50;99.90;;;;;;5056171;28;19909;-88
2021/01/18 09:35:39;;;;;;;;;;;4.50;99.90;;;;;;5055926;28;19994;-89
2021/01/18 09:38:09;;;;;;;;;;;4.50;99.90;;;;;;5057162;28;20374;-89
2021/01/18 09:41:08;;;;;;;;;;;;;;;;;;;;;
2021/01/18 09:43:40;;;;;;;;;;;4.60;99.90;;;;;;5112367;27;19915;-87
2021/01/18 09:46:14;;;;;;;;;;;4.60;99.90;;;;;;5121367;27;19915;-88
2021/01/18 09:48:51;;;;;;;;;;;4.60;99.90;;;;;;5123819;27;19919;-89
2021/01/18 09:51:20;;;;;;;;;;;4.60;99.90;;;;;;5141102;27;20376;-89
2021/01/18 09:54:00;;;;;;;;;;;4.60;99.90;;;;;;5039249;28;19983;-89
2021/01/18 09:56:37;;;;;;;;;;;4.60;99.90;;;;;;5055973;28;20108;-90
2021/01/18 09:59:09;;;;;;;;;;;4.70;99.90;;;;;;5056015;28;19992;-88
2021/01/18 10:01:40;;;;;;;;;;;4.70;99.90;;;;;;5053317;28;19917;-89
2021/01/18 10:04:20;;;;;;;;;;;4.70;99.90;;;;;;5053761;28;19915;-89
2021/01/18 10:06:47;;;;;;;;;;;4.80;99.90;;;;;;5057441;28;19963;-89
2021/01/18 10:09:24;;;;;;;;;;;4.90;99.90;;;;;;5050696;28;20361;-89
2021/01/18 10:11:57;;;;;;;;;;;4.90;99.90;;;;;;5055826;28;19915;-90
2021/01/18 10:14:30;;;;;;;;;;;5.00;99.90;;;;;;5051705;28;20262;-89
2021/01/18 10:17:22;;;;;;;;;;;5.00;99.90;;;;;;5016237;28;19976;-89
2021/01/18 10:20:03;;;;;;;;;;;5.00;99.90;;;;;;4998765;28;19944;-88
2021/01/18 10:22:47;;;;;;;;;;;5.00;99.90;;;;;;5015770;28;19936;-87
2021/01/18 10:25:19;;;;;;;;;;;5.10;99.90;;;;;;5085359;28;19959;-89
2021/01/18 10:27:59;;;;;;;;;;;5.20;99.90;;;;;;5113249;28;20368;-87
2021/01/18 10:30:30;;;;;;;;;;;5.20;99.90;;;;;;5098981;28;19908;-87
2021/01/18 10:33:01;;;;;;;;;;;5.30;99.90;;;;;;5101499;28;19907;-88
2021/01/18 10:35:35;;;;;;;;;;;5.30;99.90;;;;;;5092682;28;19908;-88
2021/01/18 10:38:09;;;;;;;;;;;5.40;99.90;;;;;;5080821;28;19908;-88
2021/01/18 10:40:45;;;;;;;;;;;5.40;99.90;;;;;;5075760;28;19947;-89
2021/01/18 10:43:17;;;;;;;;;;;5.40;99.90;;;;;;5072940;28;19919;-90
2021/01/18 10:45:49;;;;;;;;;;;5.50;99.90;;;;;;5077569;28;19946;-89
2021/01/18 10:48:20;;;;;;;;;;;5.60;99.90;;;;;;5074869;28;19924;-90
2021/01/18 10:50:57;;;;;;;;;;;5.60;99.90;;;;;;5053886;28;19960;-90
2021/01/18 10:53:33;;;;;;;;;;;5.60;99.90;;;;;;5059249;28;19908;-89
2021/01/18 10:56:17;;;;;;;;;;;5.60;99.90;;;;;;5055155;28;19912;-91
2021/01/18 10:58:57;;;;;;;;;;;5.50;99.90;;;;;;5062996;28;20023;-90
2021/01/18 11:01:26;;;;;;;;;;;5.60;99.90;;;;;;5123714;27;19915;-89
2021/01/18 11:03:57;;;;;;;;;;;5.60;99.90;;;;;;5119554;27;19964;-89
2021/01/18 11:06:35;;;;;;;;;;;5.50;99.90;;;;;;5116633;27;19908;-89
2021/01/18 11:09:07;;;;;;;;;;;5.50;99.90;;;;;;5120446;27;19907;-89
2021/01/18 11:11:56;;;;;;;;;;;5.50;99.90;;;;;;5137209;27;20253;-89
2021/01/18 11:14:27;;;;;;;;;;;5.50;99.90;;;;;;5120521;27;19988;-89
2021/01/18 11:16:57;;;;;;;;;;;5.50;99.90;;;;;;5114963;27;19963;-89
2021/01/18 11:19:24;;;;;;;;;;;5.50;99.90;;;;;;5112894;27;19952;-89
2021/01/18 11:21:53;;;;;;;;;;;5.50;99.90;;;;;;5139984;27;19922;-89
2021/01/18 11:24:24;;;;;;;;;;;5.60;99.90;;;;;;5133138;27;20231;-90
2021/01/18 11:27:09;;;;;;;;;;;5.60;99.90;;;;;;5155635;27;19939;-89
2021/01/18 11:29:38;;;;;;;;;;;5.60;99.90;;;;;;5135693;27;20379;-88
2021/01/18 11:32:10;;;;;;;;;;;5.60;99.90;;;;;;5125312;27;19908;-88
2021/01/18 11:34:41;;;;;;;;;;;5.60;99.90;;;;;;5112427;27;19907;-88
2021/01/18 11:37:18;;;;;;;;;;;5.60;99.90;;;;;;5137505;27;19908;-89
2021/01/18 11:39:46;;;;;;;;;;;5.60;99.90;;;;;;5118394;27;19998;-89
2021/01/18 11:42:14;;;;;;;;;;;5.60;99.90;;;;;;5123950;27;20002;-88
2021/01/18 11:44:44;;;;;;;;;;;5.60;99.90;;;;;;5118382;27;19908;-89
2021/01/18 11:47:14;;;;;;;;;;;5.60;99.90;;;;;;5114400;27;19907;-89
2021/01/18 11:49:40;;;;;;;;;;;5.60;99.90;;;;;;5118890;27;20006;-89
2021/01/18 11:52:11;;;;;;;;;;;5.60;99.90;;;;;;5113396;27;19972;-90
2021/01/18 11:54:42;;;;;;;;;;;5.60;99.90;;;;;;5112930;27;19914;-88
2021/01/18 11:57:10;;;;;;;;;;;5.60;99.90;;;;;;5118656;27;19907;-88
2021/01/18 11:59:42;;;;;;;;;;;5.60;99.90;;;;;;5129538;27;19908;-88
2021/01/18 12:02:18;;;;;;;;;;;5.60;99.90;;;;;;5154381;27;19919;-90
2021/01/18 12:04:47;;;;;;;;;;;5.60;99.90;;;;;;5138174;27;19908;-91
2021/01/18 12:07:15;;;;;;;;;;;5.60;99.90;;;;;;5157070;27;19917;-90
2021/01/18 12:09:44;;;;;;;;;;;5.70;99.90;;;;;;5151597;27;19950;-89
2021/01/18 12:12:10;;;;;;;;;;;5.70;99.90;;;;;;5138792;27;19913;-89
2021/01/18 12:14:41;;;;;;;;;;;5.80;99.90;;;;;;5132414;27;19934;-88
2021/01/18 12:17:15;;;;;;;;;;;5.80;99.90;;;;;;5138545;27;19907;-89
2021/01/18 12:20:00;;;;;;;;;;;5.90;99.90;;;;;;5137720;27;20379;-90
2021/01/18 12:22:33;;;;;;;;;;;5.90;99.90;;;;;;5153991;27;19911;-88
2021/01/18 12:25:00;;;;;;;;;;;6.00;99.90;;;;;;5093790;28;19912;-89
2021/01/18 12:27:28;;;;;;;;;;;6.00;99.90;;;;;;5072430;28;19944;-88
2021/01/18 12:30:05;;;;;;;;;;;6.00;99.90;;;;;;5076686;28;20273;-90
2021/01/18 12:32:38;;;;;;;;;;;6.00;99.90;;;;;;5076069;28;20405;-89
2021/01/18 12:35:10;;;;;;;;;;;6.00;99.90;;;;;;5073347;28;19909;-88
2021/01/18 12:37:41;;;;;;;;;;;6.00;99.90;;;;;;5087892;28;19909;-88
2021/01/18 12:40:14;;;;;;;;;;;6.00;99.90;;;;;;5068441;28;19923;-89
2021/01/18 12:42:46;;;;;;;;;;;6.10;99.90;;;;;;5079757;28;20470;-89
2021/01/18 12:45:17;;;;;;;;;;;6.10;99.90;;;;;;5035888;28;19913;-89
2021/01/18 12:47:45;;;;;;;;;;;6.10;99.90;;;;;;5049881;28;19999;-88
2021/01/18 12:50:12;;;;;;;;;;;6.10;99.90;;;;;;5030616;28;19927;-89
2021/01/18 12:52:47;;;;;;;;;;;6.10;99.90;;;;;;5036407;28;19935;-88
2021/01/18 12:55:27;;;;;;;;;;;6.10;99.90;;;;;;5070156;28;19922;-89
2021/01/18 12:58:03;;;;;;;;;;;6.10;99.90;;;;;;5098486;28;19912;-88
2021/01/18 13:00:32;;;;;;;;;;;6.10;99.90;;;;;;5111817;28;19955;-88
2021/01/18 13:03:05;;;;;;;;;;;6.10;99.90;;;;;;5094872;28;19947;-89
2021/01/18 13:05:41;;;;;;;;;;;6.10;99.90;;;;;;5097873;28;20018;-89
2021/01/18 13:08:10;;;;;;;;;;;6.10;99.90;;;;;;5101339;28;19912;-89
2021/01/18 13:10:49;;;;;;;;;;;6.10;99.90;;;;;;5098496;28;19915;-89
2021/01/18 13:13:21;;;;;;;;;;;6.20;99.90;;;;;;5099135;28;19908;-88
2021/01/18 13:15:52;;;;;;;;;;;6.30;99.90;;;;;;5112305;27;19915;-89
2021/01/18 13:18:26;;;;;;;;;;;6.40;99.90;;;;;;5143212;27;19907;-88
2021/01/18 13:20:54;;;;;;;;;;;6.40;99.90;;;;;;5142218;27;20389;-89
2021/01/18 13:23:30;;;;;;;;;;;6.50;99.90;;;;;;5161492;27;19970;-89
2021/01/18 13:25:58;;;;;;;;;;;6.50;99.90;;;;;;5156906;27;19907;-88
2021/01/18 13:28:42;;;;;;;;;;;6.50;99.90;;;;;;5136527;27;19959;-89
2021/01/18 13:31:15;;;;;;;;;;;6.60;99.90;;;;;;5123753;27;19912;-89
2021/01/18 13:33:53;;;;;;;;;;;6.60;99.90;;;;;;5121487;27;20355;-91
2021/01/18 13:36:24;;;;;;;;;;;6.60;99.90;;;;;;5119167;27;19912;-89
2021/01/18 13:39:00;;;;;;;;;;;6.60;99.90;;;;;;5121152;27;19912;-89
2021/01/18 13:41:34;;;;;;;;;;;6.60;99.90;;;;;;5120852;27;19915;-89
2021/01/18 13:44:03;;;;;;;;;;;6.70;99.90;;;;;;5121502;27;19963;-89
2021/01/18 13:46:38;;;;;;;;;;;6.80;99.90;;;;;;5113847;27;19935;-88
2021/01/18 13:49:07;;;;;;;;;;;6.80;99.90;;;;;;5120728;27;20375;-90
2021/01/18 13:52:11;;;;;;;;;;;6.80;99.90;;;;;;5120801;27;19937;-89
2021/01/18 13:55:02;;;;;;;;;;;6.90;99.90;;;;;;5100736;27;19912;-86
2021/01/18 13:57:33;;;;;;;;;;;6.90;99.90;;;;;;5119505;27;19912;-89
2021/01/18 14:00:16;;;;;;;;;;;6.90;99.90;;;;;;5120856;27;20006;-88
2021/01/18 14:02:47;;;;;;;;;;;6.90;99.90;;;;;;5079750;28;19923;-89
2021/01/18 14:05:18;;;;;;;;;;;6.90;99.90;;;;;;5076708;28;20014;-90
2021/01/18 14:07:52;;;;;;;;;;;6.90;99.90;;;;;;5078567;28;20316;-89
2021/01/18 14:10:39;;;;;;;;;;;6.90;99.90;;;;;;5094419;28;19909;-88
2021/01/18 14:13:12;;;;;;;;;;;6.90;99.90;;;;;;5079636;28;20003;-89
2021/01/18 14:15:37;;;;;;;;;;;6.90;99.90;;;;;;5077690;28;20399;-88
2021/01/18 14:18:20;;;;;;;;;;;;;;;;;;;;;
2021/01/18 14:20:50;;;;;;;;;;;6.80;99.90;;;;;;5095622;28;19916;-88
2021/01/18 14:23:18;;;;;;;;;;;6.70;99.90;;;;;;5077452;28;20007;-88
2021/01/18 14:25:44;;;;;;;;;;;6.70;99.90;;;;;;5087540;28;19908;-87
2021/01/18 14:28:13;;;;;;;;;;;6.60;99.90;;;;;;5115977;27;19912;-88
2021/01/18 14:30:57;;;;;;;;;;;6.50;99.90;;;;;;5123432;27;19965;-88
2021/01/18 14:33:25;;;;;;;;;;;6.50;99.90;;;;;;5130469;27;19964;-89
2021/01/18 14:36:02;;;;;;;;;;;6.40;99.90;;;;;;5141031;27;19932;-89
2021/01/18 14:38:42;;;;;;;;;;;6.30;99.90;;;;;;5142141;27;19907;-88
2021/01/18 14:41:07;;;;;;;;;;;6.20;99.90;;;;;;5145353;27;19912;-89
2021/01/18 14:43:36;;;;;;;;;;;6.20;99.90;;;;;;5113024;27;19911;-89
2021/01/18 14:46:19;;;;;;;;;;;6.20;99.90;;;;;;5136482;27;19965;-87
2021/01/18 14:48:48;;;;;;;;;;;6.10;99.90;;;;;;5146317;27;19919;-89
2021/01/18 14:51:22;;;;;;;;;;;6.10;99.90;;;;;;5137780;27;19918;-88
2021/01/18 14:53:53;;;;;;;;;;;6.10;99.90;;;;;;5159025;27;19907;-89
2021/01/18 14:59:53;;;;;;;;;;;6.10;99.90;;;;;;5043325;28;20378;-90
2021/01/18 15:02:42;;;;;;;;;;;6.10;99.90;;;;;;5037465;28;19920;-88
2021/01/18 15:08:03;;;;;;;;;;;6.20;99.90;;;;;;5031157;28;20103;-88
2021/01/18 15:10:28;;;;;;;;;;;6.20;99.90;;;;;;5009593;28;20374;-90
2021/01/18 15:12:58;;;;;;;;;;;6.20;99.90;;;;;;5028570;28;19928;-89